sensor_id;sensor_type;location;lat;lon;timestamp;temperature;humidity
46335;DHT22;32051;48.882;9.210;2023-08-07T13:02:23;20.40;99.40
46335;DHT22;32051;48.882;9.210;2023-08-07T13:04:49;20.20;99.80
46335;DHT22;32051;48.882;9.210;2023-08-07T13:07:17;19.90;99.90
46335;DHT22;32051;48.882;9.210;2023-08-07T13:09:42;19.60;99.90
46335;DHT22;32051;48.882;9.210;2023-08-07T13:12:08;19.10;99.90
46335;DHT22;32051;48.882;9.210;2023-08-07T13:14:34;18.80;99.90
46335;DHT22;32051;48.882;9.210;2023-08-07T13:17:00;18.60;99.90
46335;DHT22;32051;48.882;9.210;2023-08-07T13:19:26;18.40;99.90
46335;DHT22;32051;48.882;9.210;2023-08-07T13:21:51;18.30;99.90
46335;DHT22;32051;48.882;9.210;2023-08-07T13:24:17;18.20;99.90
46335;DHT22;32051;48.882;9.210;2023-08-07T13:26:42;18.20;99.90
46335;DHT22;32051;48.882;9.210;2023-08-07T13:29:12;18.30;99.90
46335;DHT22;32051;48.882;9.210;2023-08-07T13:31:37;18.40;99.90
46335;DHT22;32051;48.882;9.210;2023-08-07T13:34:03;18.50;99.90
46335;DHT22;32051;48.882;9.210;2023-08-07T13:36:36;18.80;99.90
46335;DHT22;32051;48.882;9.210;2023-08-07T13:39:03;19.20;99.90
46335;DHT22;32051;48.882;9.210;2023-08-07T13:41:29;19.60;99.90
46335;DHT22;32051;48.882;9.210;2023-08-07T13:43:55;19.90;99.90
46335;DHT22;32051;48.882;9.210;2023-08-07T13:46:21;20.10;99.90
46335;DHT22;32051;48.882;9.210;2023-08-07T13:48:47;20.60;99.90
46335;DHT22;32051;48.882;9.210;2023-08-07T13:51:14;20.70;99.40
46335;DHT22;32051;48.882;9.210;2023-08-07T13:53:41;20.60;99.30
46335;DHT22;32051;48.882;9.210;2023-08-07T13:56:07;20.40;99.90
46335;DHT22;32051;48.882;9.210;2023-08-07T13:58:34;20.20;99.80
46335;DHT22;32051;48.882;9.210;2023-08-07T14:01:00;20.30;99.90
46335;DHT22;32051;48.882;9.210;2023-08-07T14:03:25;20.40;99.40
46335;DHT22;32051;48.882;9.210;2023-08-07T14:05:51;20.20;99.50
46335;DHT22;32051;48.882;9.210;2023-08-07T14:08:17;20.10;99.90
46335;DHT22;32051;48.882;9.210;2023-08-07T14:10:43;20.00;99.90
46335;DHT22;32051;48.882;9.210;2023-08-07T14:13:09;20.00;99.90
46335;DHT22;32051;48.882;9.210;2023-08-07T14:15:35;21.00;99.90
46335;DHT22;32051;48.882;9.210;2023-08-07T14:35:12;20.80;95.30
46335;DHT22;32051;48.882;9.210;2023-08-07T14:37:39;20.60;96.40
46335;DHT22;32051;48.882;9.210;2023-08-07T14:40:05;20.20;96.60
46335;DHT22;32051;48.882;9.210;2023-08-07T14:42:32;20.00;97.20
46335;DHT22;32051;48.882;9.210;2023-08-07T14:44:58;19.90;98.10
46335;DHT22;32051;48.882;9.210;2023-08-07T14:47:24;20.60;98.40
46335;DHT22;32051;48.882;9.210;2023-08-07T14:49:50;21.10;97.00
46335;DHT22;32051;48.882;9.210;2023-08-07T14:52:16;21.80;96.20
46335;DHT22;32051;48.882;9.210;2023-08-07T14:54:42;22.30;93.40
46335;DHT22;32051;48.882;9.210;2023-08-07T14:57:08;22.20;92.90
46335;DHT22;32051;48.882;9.210;2023-08-07T14:59:33;21.70;93.00
46335;DHT22;32051;48.882;9.210;2023-08-07T15:01:59;21.10;94.70
46335;DHT22;32051;48.882;9.210;2023-08-07T15:04:25;20.70;96.40
46335;DHT22;32051;48.882;9.210;2023-08-07T15:06:50;20.00;97.10
46335;DHT22;32051;48.882;9.210;2023-08-07T15:09:17;19.70;97.90
46335;DHT22;32051;48.882;9.210;2023-08-07T15:11:45;19.40;99.50
46335;DHT22;32051;48.882;9.210;2023-08-07T15:14:11;19.10;99.90
46335;DHT22;32051;48.882;9.210;2023-08-07T15:16:36;18.80;99.90
46335;DHT22;32051;48.882;9.210;2023-08-07T15:19:03;18.60;99.90
